sensor_id;sensor_type;location;lat;lon;timestamp;temperature;humidity
68556;HTU21D;55544;51.032;5.866;2022-08-01T00:00:23;21.69;80.07
68556;HTU21D;55544;51.032;5.866;2022-08-01T00:02:48;21.70;80.20
68556;HTU21D;55544;51.032;5.866;2022-08-01T00:05:14;21.72;80.28
68556;HTU21D;55544;51.032;5.866;2022-08-01T00:07:40;21.73;80.36
68556;HTU21D;55544;51.032;5.866;2022-08-01T00:10:09;21.73;80.30
68556;HTU21D;55544;51.032;5.866;2022-08-01T00:12:36;21.73;80.31
68556;HTU21D;55544;51.032;5.866;2022-08-01T00:15:03;21.73;80.28
68556;HTU21D;55544;51.032;5.866;2022-08-01T00:17:28;21.67;80.45
68556;HTU21D;55544;51.032;5.866;2022-08-01T00:19:54;21.62;80.56
68556;HTU21D;55544;51.032;5.866;2022-08-01T00:22:20;21.60;80.72
68556;HTU21D;55544;51.032;5.866;2022-08-01T00:24:45;21.61;80.88
68556;HTU21D;55544;51.032;5.866;2022-08-01T00:27:11;21.61;81.03
68556;HTU21D;55544;51.032;5.866;2022-08-01T00:29:37;21.62;80.95
68556;HTU21D;55544;51.032;5.866;2022-08-01T00:32:02;21.62;81.01
68556;HTU21D;55544;51.032;5.866;2022-08-01T00:34:28;21.65;80.98
68556;HTU21D;55544;51.032;5.866;2022-08-01T00:36:54;21.66;80.81
68556;HTU21D;55544;51.032;5.866;2022-08-01T00:39:19;21.66;80.78
68556;HTU21D;55544;51.032;5.866;2022-08-01T00:41:45;21.66;80.81
68556;HTU21D;55544;51.032;5.866;2022-08-01T00:44:11;21.62;80.92
68556;HTU21D;55544;51.032;5.866;2022-08-01T00:46:36;21.62;81.14
68556;HTU21D;55544;51.032;5.866;2022-08-01T00:49:03;21.62;81.17
68556;HTU21D;55544;51.032;5.866;2022-08-01T00:51:29;21.62;81.20
68556;HTU21D;55544;51.032;5.866;2022-08-01T00:53:54;21.62;81.23
68556;HTU21D;55544;51.032;5.866;2022-08-01T00:56:24;21.66;81.11
68556;HTU21D;55544;51.032;5.866;2022-08-01T00:58:51;21.64;81.28
68556;HTU21D;55544;51.032;5.866;2022-08-01T01:01:17;21.66;81.20
68556;HTU21D;55544;51.032;5.866;2022-08-01T01:03:47;21.67;81.18
68556;HTU21D;55544;51.032;5.866;2022-08-01T01:06:34;21.67;81.20
68556;HTU21D;55544;51.032;5.866;2022-08-01T01:09:15;21.68;81.04
68556;HTU21D;55544;51.032;5.866;2022-08-01T01:14:32;21.70;80.49
68556;HTU21D;55544;51.032;5.866;2022-08-01T01:17:01;21.66;80.60
68556;HTU21D;55544;51.032;5.866;2022-08-01T01:19:30;21.64;80.72
68556;HTU21D;55544;51.032;5.866;2022-08-01T01:25:26;21.62;80.67
68556;HTU21D;55544;51.032;5.866;2022-08-01T01:31:10;21.62;80.74
68556;HTU21D;55544;51.032;5.866;2022-08-01T01:33:40;21.65;80.72
68556;HTU21D;55544;51.032;5.866;2022-08-01T01:36:09;21.68;80.68
68556;HTU21D;55544;51.032;5.866;2022-08-01T01:38:41;21.66;80.56
68556;HTU21D;55544;51.032;5.866;2022-08-01T01:41:10;21.66;80.43
68556;HTU21D;55544;51.032;5.866;2022-08-01T01:43:37;21.66;80.34
68556;HTU21D;55544;51.032;5.866;2022-08-01T01:46:04;21.68;80.26
68556;HTU21D;55544;51.032;5.866;2022-08-01T01:48:32;21.68;80.32
68556;HTU21D;55544;51.032;5.866;2022-08-01T01:51:01;21.69;80.31
68556;HTU21D;55544;51.032;5.866;2022-08-01T01:53:28;21.70;80.19
68556;HTU21D;55544;51.032;5.866;2022-08-01T01:55:57;21.70;80.01
68556;HTU21D;55544;51.032;5.866;2022-08-01T01:58:26;21.68;79.97
68556;HTU21D;55544;51.032;5.866;2022-08-01T02:00:56;21.68;79.98
68556;HTU21D;55544;51.032;5.866;2022-08-01T02:03:25;21.68;79.96
68556;HTU21D;55544;51.032;5.866;2022-08-01T02:05:53;21.73;79.93
68556;HTU21D;55544;51.032;5.866;2022-08-01T02:08:22;21.74;79.61
68556;HTU21D;55544;51.032;5.866;2022-08-01T02:10:52;21.73;79.37
68556;HTU21D;55544;51.032;5.866;2022-08-01T02:13:38;21.70;79.46
68556;HTU21D;55544;51.032;5.866;2022-08-01T02:16:06;21.68;79.59
68556;HTU21D;55544;51.032;5.866;2022-08-01T02:18:33;21.70;79.69
68556;HTU21D;55544;51.032;5.866;2022-08-01T02:21:04;21.73;79.75
68556;HTU21D;55544;51.032;5.866;2022-08-01T02:23:34;21.72;79.57
68556;HTU21D;55544;51.032;5.866;2022-08-01T02:26:09;21.72;79.62
68556;HTU21D;55544;51.032;5.866;2022-08-01T02:28:59;21.72;79.72
68556;HTU21D;55544;51.032;5.866;2022-08-01T02:31:32;21.75;79.75
68556;HTU21D;55544;51.032;5.866;2022-08-01T02:34:06;21.77;79.63
68556;HTU21D;55544;51.032;5.866;2022-08-01T02:36:34;21.76;79.44
68556;HTU21D;55544;51.032;5.866;2022-08-01T02:39:06;21.75;79.59
68556;HTU21D;55544;51.032;5.866;2022-08-01T02:41:38;21.76;79.65
68556;HTU21D;55544;51.032;5.866;2022-08-01T02:44:07;21.77;79.49
68556;HTU21D;55544;51.032;5.866;2022-08-01T02:46:47;21.80;79.16
68556;HTU21D;55544;51.032;5.866;2022-08-01T02:49:16;21.78;79.14
68556;HTU21D;55544;51.032;5.866;2022-08-01T02:51:47;21.76;79.28
68556;HTU21D;55544;51.032;5.866;2022-08-01T02:54:16;21.72;79.34
68556;HTU21D;55544;51.032;5.866;2022-08-01T02:56:45;21.70;79.47
68556;HTU21D;55544;51.032;5.866;2022-08-01T02:59:15;21.68;79.62
68556;HTU21D;55544;51.032;5.866;2022-08-01T03:01:43;21.69;79.53
68556;HTU21D;55544;51.032;5.866;2022-08-01T03:04:12;21.66;79.69
68556;HTU21D;55544;51.032;5.866;2022-08-01T03:06:39;21.68;79.65
68556;HTU21D;55544;51.032;5.866;2022-08-01T03:09:06;21.68;79.62
68556;HTU21D;55544;51.032;5.866;2022-08-01T03:11:35;21.69;79.68
68556;HTU21D;55544;51.032;5.866;2022-08-01T03:14:05;21.72;79.49
68556;HTU21D;55544;51.032;5.866;2022-08-01T03:16:35;21.74;79.35
68556;HTU21D;55544;51.032;5.866;2022-08-01T03:19:04;21.70;79.33
68556;HTU21D;55544;51.032;5.866;2022-08-01T03:21:33;21.72;79.26
68556;HTU21D;55544;51.032;5.866;2022-08-01T03:24:01;21.69;79.29
68556;HTU21D;55544;51.032;5.866;2022-08-01T03:26:31;21.67;79.46
68556;HTU21D;55544;51.032;5.866;2022-08-01T03:29:04;21.68;79.51
68556;HTU21D;55544;51.032;5.866;2022-08-01T03:31:38;21.65;79.43
68556;HTU21D;55544;51.032;5.866;2022-08-01T03:34:08;21.65;79.42
68556;HTU21D;55544;51.032;5.866;2022-08-01T03:39:13;21.62;79.21
68556;HTU21D;55544;51.032;5.866;2022-08-01T03:41:45;21.59;79.24
68556;HTU21D;55544;51.032;5.866;2022-08-01T03:44:17;21.58;79.38
68556;HTU21D;55544;51.032;5.866;2022-08-01T03:46:50;21.58;79.46
68556;HTU21D;55544;51.032;5.866;2022-08-01T03:49:22;21.57;79.37
68556;HTU21D;55544;51.032;5.866;2022-08-01T03:51:49;21.55;79.28
68556;HTU21D;55544;51.032;5.866;2022-08-01T03:54:21;21.55;79.37
68556;HTU21D;55544;51.032;5.866;2022-08-01T03:56:50;21.59;79.14
68556;HTU21D;55544;51.032;5.866;2022-08-01T03:59:18;21.60;79.20
68556;HTU21D;55544;51.032;5.866;2022-08-01T04:01:46;21.59;79.29
68556;HTU21D;55544;51.032;5.866;2022-08-01T04:04:13;21.58;79.29
68556;HTU21D;55544;51.032;5.866;2022-08-01T04:06:40;21.61;79.10
68556;HTU21D;55544;51.032;5.866;2022-08-01T04:09:09;21.59;79.15
68556;HTU21D;55544;51.032;5.866;2022-08-01T04:11:35;21.58;79.29
68556;HTU21D;55544;51.032;5.866;2022-08-01T04:14:01;21.58;79.26
68556;HTU21D;55544;51.032;5.866;2022-08-01T04:16:27;21.55;79.43
68556;HTU21D;55544;51.032;5.866;2022-08-01T04:18:52;21.54;79.46
68556;HTU21D;55544;51.032;5.866;2022-08-01T04:21:22;21.52;79.56
68556;HTU21D;55544;51.032;5.866;2022-08-01T04:23:50;21.51;79.66
68556;HTU21D;55544;51.032;5.866;2022-08-01T04:26:20;21.49;79.85
68556;HTU21D;55544;51.032;5.866;2022-08-01T04:28:49;21.42;80.25
68556;HTU21D;55544;51.032;5.866;2022-08-01T04:31:17;21.37;80.90
68556;HTU21D;55544;51.032;5.866;2022-08-01T04:33:49;21.32;81.24
68556;HTU21D;55544;51.032;5.866;2022-08-01T04:36:19;21.28;81.72
68556;HTU21D;55544;51.032;5.866;2022-08-01T04:38:48;21.23;81.81
68556;HTU21D;55544;51.032;5.866;2022-08-01T04:41:17;21.17;82.28
68556;HTU21D;55544;51.032;5.866;2022-08-01T04:43:44;21.17;82.56
68556;HTU21D;55544;51.032;5.866;2022-08-01T04:46:11;21.16;82.71
68556;HTU21D;55544;51.032;5.866;2022-08-01T04:48:40;21.17;82.76
68556;HTU21D;55544;51.032;5.866;2022-08-01T04:51:16;21.14;82.84
68556;HTU21D;55544;51.032;5.866;2022-08-01T04:53:43;21.13;83.07
68556;HTU21D;55544;51.032;5.866;2022-08-01T04:56:09;21.11;83.19
68556;HTU21D;55544;51.032;5.866;2022-08-01T04:58:35;21.10;83.43
68556;HTU21D;55544;51.032;5.866;2022-08-01T05:01:00;21.13;83.43
68556;HTU21D;55544;51.032;5.866;2022-08-01T05:03:26;21.11;83.49
68556;HTU21D;55544;51.032;5.866;2022-08-01T05:05:52;21.14;83.76
68556;HTU21D;55544;51.032;5.866;2022-08-01T05:08:17;21.18;83.79
68556;HTU21D;55544;51.032;5.866;2022-08-01T05:10:43;21.22;83.70
68556;HTU21D;55544;51.032;5.866;2022-08-01T05:13:08;21.25;83.74
68556;HTU21D;55544;51.032;5.866;2022-08-01T05:15:35;21.24;83.74
68556;HTU21D;55544;51.032;5.866;2022-08-01T05:18:04;21.29;83.82
68556;HTU21D;55544;51.032;5.866;2022-08-01T05:20:30;21.32;84.00
68556;HTU21D;55544;51.032;5.866;2022-08-01T05:22:55;21.35;83.61
68556;HTU21D;55544;51.032;5.866;2022-08-01T05:25:22;21.36;83.40
68556;HTU21D;55544;51.032;5.866;2022-08-01T05:27:49;21.39;83.37
68556;HTU21D;55544;51.032;5.866;2022-08-01T05:30:15;21.39;83.10
68556;HTU21D;55544;51.032;5.866;2022-08-01T05:32:41;21.35;83.20
68556;HTU21D;55544;51.032;5.866;2022-08-01T05:35:07;21.35;83.60
68556;HTU21D;55544;51.032;5.866;2022-08-01T05:37:34;21.34;83.58
68556;HTU21D;55544;51.032;5.866;2022-08-01T05:40:00;21.33;83.61
68556;HTU21D;55544;51.032;5.866;2022-08-01T05:42:26;21.35;83.81
68556;HTU21D;55544;51.032;5.866;2022-08-01T05:44:51;21.32;83.84
68556;HTU21D;55544;51.032;5.866;2022-08-01T05:47:18;21.31;83.96
68556;HTU21D;55544;51.032;5.866;2022-08-01T05:49:44;21.30;84.05
68556;HTU21D;55544;51.032;5.866;2022-08-01T05:52:10;21.33;84.42
68556;HTU21D;55544;51.032;5.866;2022-08-01T05:54:36;21.38;84.20
68556;HTU21D;55544;51.032;5.866;2022-08-01T05:57:02;21.42;83.80
68556;HTU21D;55544;51.032;5.866;2022-08-01T05:59:29;21.44;83.78
68556;HTU21D;55544;51.032;5.866;2022-08-01T06:01:55;21.49;83.71
68556;HTU21D;55544;51.032;5.866;2022-08-01T06:04:21;21.47;83.77
68556;HTU21D;55544;51.032;5.866;2022-08-01T06:06:47;21.50;83.74
68556;HTU21D;55544;51.032;5.866;2022-08-01T06:09:13;21.54;83.61
68556;HTU21D;55544;51.032;5.866;2022-08-01T06:11:38;21.58;83.49
68556;HTU21D;55544;51.032;5.866;2022-08-01T06:14:04;21.60;83.45
68556;HTU21D;55544;51.032;5.866;2022-08-01T06:16:30;21.62;83.55
68556;HTU21D;55544;51.032;5.866;2022-08-01T06:18:56;21.67;83.42
68556;HTU21D;55544;51.032;5.866;2022-08-01T06:21:21;21.72;83.20
68556;HTU21D;55544;51.032;5.866;2022-08-01T06:23:47;21.77;83.36
68556;HTU21D;55544;51.032;5.866;2022-08-01T06:26:13;21.81;83.10
68556;HTU21D;55544;51.032;5.866;2022-08-01T06:28:38;21.85;82.75
68556;HTU21D;55544;51.032;5.866;2022-08-01T06:31:04;21.88;82.65
68556;HTU21D;55544;51.032;5.866;2022-08-01T06:33:30;21.93;82.33
68556;HTU21D;55544;51.032;5.866;2022-08-01T06:35:56;21.95;81.93
68556;HTU21D;55544;51.032;5.866;2022-08-01T06:38:22;21.95;81.64
68556;HTU21D;55544;51.032;5.866;2022-08-01T06:40:48;21.93;81.92
68556;HTU21D;55544;51.032;5.866;2022-08-01T06:43:14;21.94;81.89
68556;HTU21D;55544;51.032;5.866;2022-08-01T06:45:40;21.89;82.08
68556;HTU21D;55544;51.032;5.866;2022-08-01T06:48:06;21.88;82.40
68556;HTU21D;55544;51.032;5.866;2022-08-01T06:50:33;21.90;82.27
68556;HTU21D;55544;51.032;5.866;2022-08-01T06:53:01;21.82;82.17
68556;HTU21D;55544;51.032;5.866;2022-08-01T06:55:26;21.80;82.26
68556;HTU21D;55544;51.032;5.866;2022-08-01T06:57:52;21.79;82.42
68556;HTU21D;55544;51.032;5.866;2022-08-01T07:00:20;21.75;82.42
68556;HTU21D;55544;51.032;5.866;2022-08-01T07:02:52;21.74;82.20
68556;HTU21D;55544;51.032;5.866;2022-08-01T07:05:18;21.68;82.66
68556;HTU21D;55544;51.032;5.866;2022-08-01T07:07:44;21.68;82.68
68556;HTU21D;55544;51.032;5.866;2022-08-01T07:10:10;21.69;82.79
68556;HTU21D;55544;51.032;5.866;2022-08-01T07:12:36;21.75;82.74
68556;HTU21D;55544;51.032;5.866;2022-08-01T07:15:08;21.81;82.42
68556;HTU21D;55544;51.032;5.866;2022-08-01T07:17:38;21.88;82.15
68556;HTU21D;55544;51.032;5.866;2022-08-01T07:20:06;21.96;81.82
68556;HTU21D;55544;51.032;5.866;2022-08-01T07:22:35;22.04;81.75
68556;HTU21D;55544;51.032;5.866;2022-08-01T07:25:03;22.08;81.39
68556;HTU21D;55544;51.032;5.866;2022-08-01T07:27:29;22.09;80.88
68556;HTU21D;55544;51.032;5.866;2022-08-01T07:29:55;22.10;80.59
68556;HTU21D;55544;51.032;5.866;2022-08-01T07:32:20;22.16;80.79
68556;HTU21D;55544;51.032;5.866;2022-08-01T07:34:46;22.23;80.56
68556;HTU21D;55544;51.032;5.866;2022-08-01T07:37:11;22.29;80.08
68556;HTU21D;55544;51.032;5.866;2022-08-01T07:39:37;22.31;79.46
68556;HTU21D;55544;51.032;5.866;2022-08-01T07:42:03;22.34;79.40
68556;HTU21D;55544;51.032;5.866;2022-08-01T07:44:28;22.37;79.54
68556;HTU21D;55544;51.032;5.866;2022-08-01T07:46:54;22.41;79.21
68556;HTU21D;55544;51.032;5.866;2022-08-01T07:49:20;22.44;78.62
68556;HTU21D;55544;51.032;5.866;2022-08-01T07:51:47;22.49;78.23
68556;HTU21D;55544;51.032;5.866;2022-08-01T07:54:13;22.50;78.24
68556;HTU21D;55544;51.032;5.866;2022-08-01T07:56:39;22.53;77.95
68556;HTU21D;55544;51.032;5.866;2022-08-01T07:59:04;22.58;77.60
68556;HTU21D;55544;51.032;5.866;2022-08-01T08:01:30;22.61;77.47
68556;HTU21D;55544;51.032;5.866;2022-08-01T08:03:56;22.63;77.71
68556;HTU21D;55544;51.032;5.866;2022-08-01T08:06:22;22.63;77.55
68556;HTU21D;55544;51.032;5.866;2022-08-01T08:08:47;22.63;77.37
68556;HTU21D;55544;51.032;5.866;2022-08-01T08:11:13;22.68;77.54
68556;HTU21D;55544;51.032;5.866;2022-08-01T08:13:38;22.69;77.55
68556;HTU21D;55544;51.032;5.866;2022-08-01T08:16:04;22.70;77.78
68556;HTU21D;55544;51.032;5.866;2022-08-01T08:18:30;22.78;77.62
68556;HTU21D;55544;51.032;5.866;2022-08-01T08:20:55;22.83;77.10
68556;HTU21D;55544;51.032;5.866;2022-08-01T08:23:21;22.96;76.34
68556;HTU21D;55544;51.032;5.866;2022-08-01T08:26:05;23.01;76.36
68556;HTU21D;55544;51.032;5.866;2022-08-01T08:28:31;23.14;75.56
68556;HTU21D;55544;51.032;5.866;2022-08-01T08:30:57;23.25;75.04
68556;HTU21D;55544;51.032;5.866;2022-08-01T08:33:23;23.34;73.93
68556;HTU21D;55544;51.032;5.866;2022-08-01T08:35:49;23.39;73.29
68556;HTU21D;55544;51.032;5.866;2022-08-01T08:38:14;23.31;72.91
68556;HTU21D;55544;51.032;5.866;2022-08-01T08:40:40;23.28;73.23
68556;HTU21D;55544;51.032;5.866;2022-08-01T08:43:06;23.22;73.14
68556;HTU21D;55544;51.032;5.866;2022-08-01T08:45:33;23.13;73.05
68556;HTU21D;55544;51.032;5.866;2022-08-01T08:47:59;23.11;74.18
68556;HTU21D;55544;51.032;5.866;2022-08-01T08:50:26;23.13;75.05
68556;HTU21D;55544;51.032;5.866;2022-08-01T08:52:54;23.22;73.82
68556;HTU21D;55544;51.032;5.866;2022-08-01T08:55:20;23.38;74.00
68556;HTU21D;55544;51.032;5.866;2022-08-01T08:57:48;23.69;73.30
68556;HTU21D;55544;51.032;5.866;2022-08-01T09:00:15;24.06;71.07
68556;HTU21D;55544;51.032;5.866;2022-08-01T09:02:46;24.43;70.66
68556;HTU21D;55544;51.032;5.866;2022-08-01T09:05:12;24.65;68.86
68556;HTU21D;55544;51.032;5.866;2022-08-01T09:07:39;24.85;67.44
68556;HTU21D;55544;51.032;5.866;2022-08-01T09:10:07;24.94;66.25
68556;HTU21D;55544;51.032;5.866;2022-08-01T09:12:36;25.05;65.46
68556;HTU21D;55544;51.032;5.866;2022-08-01T09:15:01;25.12;65.21
68556;HTU21D;55544;51.032;5.866;2022-08-01T09:17:27;25.03;64.50
68556;HTU21D;55544;51.032;5.866;2022-08-01T09:19:55;24.88;65.24
68556;HTU21D;55544;51.032;5.866;2022-08-01T09:22:24;24.75;66.17
68556;HTU21D;55544;51.032;5.866;2022-08-01T09:27:32;24.64;66.63
68556;HTU21D;55544;51.032;5.866;2022-08-01T09:30:16;24.71;67.10
68556;HTU21D;55544;51.032;5.866;2022-08-01T09:33:00;24.87;66.78
68556;HTU21D;55544;51.032;5.866;2022-08-01T09:35:28;25.07;64.05
68556;HTU21D;55544;51.032;5.866;2022-08-01T09:38:14;25.25;63.32
68556;HTU21D;55544;51.032;5.866;2022-08-01T09:43:19;25.82;62.06
68556;HTU21D;55544;51.032;5.866;2022-08-01T09:45:46;26.18;60.59
68556;HTU21D;55544;51.032;5.866;2022-08-01T09:48:12;26.53;59.85
68556;HTU21D;55544;51.032;5.866;2022-08-01T09:50:44;26.53;59.18
68556;HTU21D;55544;51.032;5.866;2022-08-01T09:53:11;26.43;59.03
68556;HTU21D;55544;51.032;5.866;2022-08-01T09:55:38;26.33;58.45
68556;HTU21D;55544;51.032;5.866;2022-08-01T09:58:05;26.15;58.32
68556;HTU21D;55544;51.032;5.866;2022-08-01T10:00:32;26.05;58.43
68556;HTU21D;55544;51.032;5.866;2022-08-01T10:02:58;26.06;58.14
68556;HTU21D;55544;51.032;5.866;2022-08-01T10:05:35;26.09;58.23
68556;HTU21D;55544;51.032;5.866;2022-08-01T10:08:04;26.10;57.92
68556;HTU21D;55544;51.032;5.866;2022-08-01T10:10:31;26.18;57.84
68556;HTU21D;55544;51.032;5.866;2022-08-01T10:12:58;26.36;57.17
68556;HTU21D;55544;51.032;5.866;2022-08-01T10:15:28;26.45;56.93
68556;HTU21D;55544;51.032;5.866;2022-08-01T10:18:00;26.50;55.99
68556;HTU21D;55544;51.032;5.866;2022-08-01T10:20:29;26.48;56.33
68556;HTU21D;55544;51.032;5.866;2022-08-01T10:22:59;26.69;56.49
68556;HTU21D;55544;51.032;5.866;2022-08-01T10:25:28;26.94;54.88
68556;HTU21D;55544;51.032;5.866;2022-08-01T10:27:54;27.13;54.52
68556;HTU21D;55544;51.032;5.866;2022-08-01T10:30:22;27.36;53.39
68556;HTU21D;55544;51.032;5.866;2022-08-01T10:32:49;27.56;52.00
68556;HTU21D;55544;51.032;5.866;2022-08-01T10:35:15;27.63;52.04
68556;HTU21D;55544;51.032;5.866;2022-08-01T10:37:45;27.71;52.07
68556;HTU21D;55544;51.032;5.866;2022-08-01T10:40:13;27.73;51.43
68556;HTU21D;55544;51.032;5.866;2022-08-01T10:42:41;27.86;50.39
68556;HTU21D;55544;51.032;5.866;2022-08-01T10:45:09;28.01;49.87
68556;HTU21D;55544;51.032;5.866;2022-08-01T10:50:41;28.29;49.94
68556;HTU21D;55544;51.032;5.866;2022-08-01T10:53:17;28.29;49.21
68556;HTU21D;55544;51.032;5.866;2022-08-01T10:55:57;28.27;48.84
68556;HTU21D;55544;51.032;5.866;2022-08-01T10:58:29;28.38;49.11
68556;HTU21D;55544;51.032;5.866;2022-08-01T11:06:25;28.56;48.63
68556;HTU21D;55544;51.032;5.866;2022-08-01T11:08:53;28.58;47.88
68556;HTU21D;55544;51.032;5.866;2022-08-01T11:11:20;28.50;47.57
68556;HTU21D;55544;51.032;5.866;2022-08-01T11:14:05;28.49;47.92
68556;HTU21D;55544;51.032;5.866;2022-08-01T11:16:40;28.41;47.94
68556;HTU21D;55544;51.032;5.866;2022-08-01T11:19:09;28.30;47.02
68556;HTU21D;55544;51.032;5.866;2022-08-01T11:27:26;27.70;47.91
68556;HTU21D;55544;51.032;5.866;2022-08-01T11:32:47;27.94;47.61
68556;HTU21D;55544;51.032;5.866;2022-08-01T11:35:13;28.10;47.33
68556;HTU21D;55544;51.032;5.866;2022-08-01T11:37:39;28.16;47.66
68556;HTU21D;55544;51.032;5.866;2022-08-01T11:40:22;28.29;47.20
68556;HTU21D;55544;51.032;5.866;2022-08-01T11:43:15;28.64;45.45
68556;HTU21D;55544;51.032;5.866;2022-08-01T11:45:51;28.95;44.58
68556;HTU21D;55544;51.032;5.866;2022-08-01T11:48:21;29.17;44.56
68556;HTU21D;55544;51.032;5.866;2022-08-01T11:50:50;29.53;44.30
68556;HTU21D;55544;51.032;5.866;2022-08-01T11:53:16;29.66;42.86
68556;HTU21D;55544;51.032;5.866;2022-08-01T11:55:49;29.80;42.74
68556;HTU21D;55544;51.032;5.866;2022-08-01T11:58:20;30.02;41.58
68556;HTU21D;55544;51.032;5.866;2022-08-01T12:00:57;30.28;40.62
68556;HTU21D;55544;51.032;5.866;2022-08-01T12:03:32;30.50;39.78
68556;HTU21D;55544;51.032;5.866;2022-08-01T12:05:59;30.64;39.51
68556;HTU21D;55544;51.032;5.866;2022-08-01T12:08:30;30.57;38.93
68556;HTU21D;55544;51.032;5.866;2022-08-01T12:11:00;30.41;39.49
68556;HTU21D;55544;51.032;5.866;2022-08-01T12:13:26;30.35;39.72
68556;HTU21D;55544;51.032;5.866;2022-08-01T12:15:52;30.40;39.66
68556;HTU21D;55544;51.032;5.866;2022-08-01T12:18:18;30.48;38.44
68556;HTU21D;55544;51.032;5.866;2022-08-01T12:20:45;30.46;37.51
68556;HTU21D;55544;51.032;5.866;2022-08-01T12:23:14;30.44;38.60
68556;HTU21D;55544;51.032;5.866;2022-08-01T12:25:40;30.52;38.56
68556;HTU21D;55544;51.032;5.866;2022-08-01T12:28:10;30.51;38.23
68556;HTU21D;55544;51.032;5.866;2022-08-01T12:30:38;30.48;38.49
68556;HTU21D;55544;51.032;5.866;2022-08-01T12:33:07;30.42;38.25
68556;HTU21D;55544;51.032;5.866;2022-08-01T12:35:34;30.12;38.30
68556;HTU21D;55544;51.032;5.866;2022-08-01T12:38:19;29.95;38.43
68556;HTU21D;55544;51.032;5.866;2022-08-01T12:40:47;29.71;38.86
68556;HTU21D;55544;51.032;5.866;2022-08-01T12:43:18;29.59;39.21
68556;HTU21D;55544;51.032;5.866;2022-08-01T12:45:48;29.59;39.27
68556;HTU21D;55544;51.032;5.866;2022-08-01T12:48:17;29.67;39.47
68556;HTU21D;55544;51.032;5.866;2022-08-01T12:50:46;29.65;39.69
68556;HTU21D;55544;51.032;5.866;2022-08-01T12:53:13;29.58;39.73
68556;HTU21D;55544;51.032;5.866;2022-08-01T12:55:54;29.52;39.55
68556;HTU21D;55544;51.032;5.866;2022-08-01T12:58:21;29.32;40.02
68556;HTU21D;55544;51.032;5.866;2022-08-01T13:00:49;29.18;40.33
68556;HTU21D;55544;51.032;5.866;2022-08-01T13:03:18;29.19;40.75
68556;HTU21D;55544;51.032;5.866;2022-08-01T13:05:53;29.23;40.07
68556;HTU21D;55544;51.032;5.866;2022-08-01T13:08:32;29.13;40.10
68556;HTU21D;55544;51.032;5.866;2022-08-01T13:13:40;28.93;40.80
68556;HTU21D;55544;51.032;5.866;2022-08-01T13:16:07;28.83;40.42
68556;HTU21D;55544;51.032;5.866;2022-08-01T13:18:35;28.75;40.68
68556;HTU21D;55544;51.032;5.866;2022-08-01T13:21:14;28.82;41.28
68556;HTU21D;55544;51.032;5.866;2022-08-01T13:23:59;29.03;41.82
68556;HTU21D;55544;51.032;5.866;2022-08-01T13:29:10;29.42;44.19
68556;HTU21D;55544;51.032;5.866;2022-08-01T13:31:37;29.63;44.95
68556;HTU21D;55544;51.032;5.866;2022-08-01T13:34:04;29.79;45.61
68556;HTU21D;55544;51.032;5.866;2022-08-01T13:36:30;29.86;46.24
68556;HTU21D;55544;51.032;5.866;2022-08-01T13:38:58;29.93;46.26
68556;HTU21D;55544;51.032;5.866;2022-08-01T13:41:43;29.93;46.22
68556;HTU21D;55544;51.032;5.866;2022-08-01T13:44:10;29.90;45.91
68556;HTU21D;55544;51.032;5.866;2022-08-01T13:46:41;29.90;45.69
68556;HTU21D;55544;51.032;5.866;2022-08-01T13:49:08;29.83;45.29
68556;HTU21D;55544;51.032;5.866;2022-08-01T13:51:35;29.67;45.31
68556;HTU21D;55544;51.032;5.866;2022-08-01T13:54:01;29.54;45.72
68556;HTU21D;55544;51.032;5.866;2022-08-01T13:56:27;29.62;46.38
68556;HTU21D;55544;51.032;5.866;2022-08-01T13:58:54;29.76;46.70
68556;HTU21D;55544;51.032;5.866;2022-08-01T14:01:20;29.87;46.02
68556;HTU21D;55544;51.032;5.866;2022-08-01T14:03:46;30.07;45.61
68556;HTU21D;55544;51.032;5.866;2022-08-01T14:06:13;30.32;44.92
68556;HTU21D;55544;51.032;5.866;2022-08-01T14:08:41;30.63;44.67
68556;HTU21D;55544;51.032;5.866;2022-08-01T14:11:08;31.01;44.13
68556;HTU21D;55544;51.032;5.866;2022-08-01T14:13:34;31.34;43.15
68556;HTU21D;55544;51.032;5.866;2022-08-01T14:16:02;31.50;42.09
68556;HTU21D;55544;51.032;5.866;2022-08-01T14:18:28;31.56;42.04
68556;HTU21D;55544;51.032;5.866;2022-08-01T14:20:54;31.58;41.81
68556;HTU21D;55544;51.032;5.866;2022-08-01T14:23:19;31.66;41.76
68556;HTU21D;55544;51.032;5.866;2022-08-01T14:25:45;31.70;41.77
68556;HTU21D;55544;51.032;5.866;2022-08-01T14:28:11;31.67;41.55
68556;HTU21D;55544;51.032;5.866;2022-08-01T14:30:36;31.59;41.59
68556;HTU21D;55544;51.032;5.866;2022-08-01T14:33:03;31.37;41.82
68556;HTU21D;55544;51.032;5.866;2022-08-01T14:35:28;31.10;42.09
68556;HTU21D;55544;51.032;5.866;2022-08-01T14:37:54;30.99;42.86
68556;HTU21D;55544;51.032;5.866;2022-08-01T14:40:20;31.12;42.88
68556;HTU21D;55544;51.032;5.866;2022-08-01T14:42:46;31.25;42.15
68556;HTU21D;55544;51.032;5.866;2022-08-01T14:45:15;31.33;41.77
68556;HTU21D;55544;51.032;5.866;2022-08-01T14:47:42;31.41;41.41
68556;HTU21D;55544;51.032;5.866;2022-08-01T14:50:11;31.46;41.49
68556;HTU21D;55544;51.032;5.866;2022-08-01T14:52:38;31.54;41.37
68556;HTU21D;55544;51.032;5.866;2022-08-01T14:55:06;31.43;40.42
68556;HTU21D;55544;51.032;5.866;2022-08-01T14:57:32;31.33;40.75
68556;HTU21D;55544;51.032;5.866;2022-08-01T14:59:58;31.36;41.03
68556;HTU21D;55544;51.032;5.866;2022-08-01T15:02:23;31.39;40.81
68556;HTU21D;55544;51.032;5.866;2022-08-01T15:04:49;31.50;40.94
68556;HTU21D;55544;51.032;5.866;2022-08-01T15:07:17;31.70;40.64
68556;HTU21D;55544;51.032;5.866;2022-08-01T15:09:43;31.87;39.93
68556;HTU21D;55544;51.032;5.866;2022-08-01T15:12:11;32.07;39.33
68556;HTU21D;55544;51.032;5.866;2022-08-01T15:14:37;32.20;39.00
68556;HTU21D;55544;51.032;5.866;2022-08-01T15:19:44;32.52;36.87
68556;HTU21D;55544;51.032;5.866;2022-08-01T15:22:10;32.58;36.05
68556;HTU21D;55544;51.032;5.866;2022-08-01T15:24:37;32.67;36.26
68556;HTU21D;55544;51.032;5.866;2022-08-01T15:27:03;32.96;35.66
68556;HTU21D;55544;51.032;5.866;2022-08-01T15:29:29;33.09;35.46
68556;HTU21D;55544;51.032;5.866;2022-08-01T15:31:54;33.09;34.86
68556;HTU21D;55544;51.032;5.866;2022-08-01T15:34:21;33.12;34.77
68556;HTU21D;55544;51.032;5.866;2022-08-01T15:36:47;33.22;34.90
68556;HTU21D;55544;51.032;5.866;2022-08-01T15:39:13;33.21;34.75
68556;HTU21D;55544;51.032;5.866;2022-08-01T15:41:40;33.21;35.11
68556;HTU21D;55544;51.032;5.866;2022-08-01T15:44:06;33.22;34.79
68556;HTU21D;55544;51.032;5.866;2022-08-01T15:46:32;33.13;34.42
68556;HTU21D;55544;51.032;5.866;2022-08-01T15:49:02;32.98;33.54
68556;HTU21D;55544;51.032;5.866;2022-08-01T15:51:28;32.77;33.33
68556;HTU21D;55544;51.032;5.866;2022-08-01T15:53:54;32.66;33.65
68556;HTU21D;55544;51.032;5.866;2022-08-01T15:56:20;32.50;34.26
68556;HTU21D;55544;51.032;5.866;2022-08-01T15:58:46;32.41;34.63
68556;HTU21D;55544;51.032;5.866;2022-08-01T16:01:12;32.44;34.54
68556;HTU21D;55544;51.032;5.866;2022-08-01T16:03:37;32.52;34.46